sensor_id;sensor_type;location;lat;lon;timestamp;temperature;humidity
17236;DHT22;8734;59.272;17.780;2022-10-17T00:01:08;9.80;99.90
17236;DHT22;8734;59.272;17.780;2022-10-17T00:03:37;9.80;99.90
17236;DHT22;8734;59.272;17.780;2022-10-17T00:06:09;9.80;99.90
17236;DHT22;8734;59.272;17.780;2022-10-17T00:08:42;9.90;99.90
17236;DHT22;8734;59.272;17.780;2022-10-17T00:11:14;9.90;99.90
17236;DHT22;8734;59.272;17.780;2022-10-17T00:13:42;9.90;99.90
17236;DHT22;8734;59.272;17.780;2022-10-17T00:16:11;10.00;99.90
17236;DHT22;8734;59.272;17.780;2022-10-17T00:18:39;10.00;99.90
17236;DHT22;8734;59.272;17.780;2022-10-17T00:21:15;10.00;99.90
17236;DHT22;8734;59.272;17.780;2022-10-17T00:23:44;10.00;99.90
17236;DHT22;8734;59.272;17.780;2022-10-17T00:26:13;10.00;99.90
17236;DHT22;8734;59.272;17.780;2022-10-17T00:28:41;10.10;99.90
17236;DHT22;8734;59.272;17.780;2022-10-17T00:31:09;10.10;99.90
17236;DHT22;8734;59.272;17.780;2022-10-17T00:33:38;10.10;99.90
17236;DHT22;8734;59.272;17.780;2022-10-17T00:36:08;10.20;99.90
17236;DHT22;8734;59.272;17.780;2022-10-17T00:38:40;10.20;99.90
17236;DHT22;8734;59.272;17.780;2022-10-17T00:41:11;10.20;99.90
17236;DHT22;8734;59.272;17.780;2022-10-17T00:43:55;10.30;99.90
17236;DHT22;8734;59.272;17.780;2022-10-17T00:46:26;10.30;99.90
17236;DHT22;8734;59.272;17.780;2022-10-17T00:48:55;10.30;99.90
17236;DHT22;8734;59.272;17.780;2022-10-17T00:51:28;10.40;99.90
17236;DHT22;8734;59.272;17.780;2022-10-17T00:54:00;10.40;99.90
17236;DHT22;8734;59.272;17.780;2022-10-17T00:56:29;10.40;99.90
17236;DHT22;8734;59.272;17.780;2022-10-17T00:58:57;10.40;99.90
17236;DHT22;8734;59.272;17.780;2022-10-17T01:01:26;10.50;99.90
17236;DHT22;8734;59.272;17.780;2022-10-17T01:03:55;10.50;99.90
17236;DHT22;8734;59.272;17.780;2022-10-17T01:06:23;10.50;99.90
17236;DHT22;8734;59.272;17.780;2022-10-17T01:08:51;10.50;99.90
17236;DHT22;8734;59.272;17.780;2022-10-17T01:11:30;10.50;99.90
17236;DHT22;8734;59.272;17.780;2022-10-17T01:14:04;10.60;99.90
17236;DHT22;8734;59.272;17.780;2022-10-17T01:16:39;10.60;99.90
17236;DHT22;8734;59.272;17.780;2022-10-17T01:19:47;10.70;99.90
17236;DHT22;8734;59.272;17.780;2022-10-17T01:22:26;10.70;99.90
17236;DHT22;8734;59.272;17.780;2022-10-17T01:25:10;10.80;99.90
17236;DHT22;8734;59.272;17.780;2022-10-17T01:27:57;10.80;99.90
17236;DHT22;8734;59.272;17.780;2022-10-17T01:30:49;10.80;99.90
17236;DHT22;8734;59.272;17.780;2022-10-17T01:33:26;10.80;99.90
17236;DHT22;8734;59.272;17.780;2022-10-17T01:36:00;10.80;99.90
17236;DHT22;8734;59.272;17.780;2022-10-17T01:38:34;10.90;99.90
17236;DHT22;8734;59.272;17.780;2022-10-17T01:41:08;10.90;99.90
17236;DHT22;8734;59.272;17.780;2022-10-17T01:43:46;11.00;99.90
17236;DHT22;8734;59.272;17.780;2022-10-17T01:46:22;11.00;99.90
17236;DHT22;8734;59.272;17.780;2022-10-17T01:48:53;11.00;99.90
17236;DHT22;8734;59.272;17.780;2022-10-17T01:51:27;11.00;99.90
17236;DHT22;8734;59.272;17.780;2022-10-17T01:54:00;10.90;99.90
17236;DHT22;8734;59.272;17.780;2022-10-17T01:56:31;10.90;99.90
17236;DHT22;8734;59.272;17.780;2022-10-17T01:59:03;10.90;99.90
17236;DHT22;8734;59.272;17.780;2022-10-17T02:01:36;11.00;99.90
17236;DHT22;8734;59.272;17.780;2022-10-17T02:04:06;11.00;99.90
17236;DHT22;8734;59.272;17.780;2022-10-17T02:06:36;11.00;99.90
17236;DHT22;8734;59.272;17.780;2022-10-17T02:09:18;10.90;99.90
17236;DHT22;8734;59.272;17.780;2022-10-17T02:12:01;10.90;99.90
17236;DHT22;8734;59.272;17.780;2022-10-17T02:14:40;10.90;99.90
17236;DHT22;8734;59.272;17.780;2022-10-17T02:17:18;10.90;99.90
17236;DHT22;8734;59.272;17.780;2022-10-17T02:19:58;10.90;99.90
17236;DHT22;8734;59.272;17.780;2022-10-17T02:22:37;10.90;99.90
17236;DHT22;8734;59.272;17.780;2022-10-17T02:25:11;10.80;99.90
17236;DHT22;8734;59.272;17.780;2022-10-17T02:27:46;10.80;99.90
17236;DHT22;8734;59.272;17.780;2022-10-17T02:30:25;10.70;99.90
17236;DHT22;8734;59.272;17.780;2022-10-17T02:33:01;10.70;99.90
17236;DHT22;8734;59.272;17.780;2022-10-17T02:35:33;10.60;99.90
17236;DHT22;8734;59.272;17.780;2022-10-17T02:38:04;10.50;99.90
17236;DHT22;8734;59.272;17.780;2022-10-17T02:40:35;10.50;99.90
17236;DHT22;8734;59.272;17.780;2022-10-17T02:43:04;10.50;99.90
17236;DHT22;8734;59.272;17.780;2022-10-17T02:45:33;10.50;99.90
17236;DHT22;8734;59.272;17.780;2022-10-17T02:48:07;10.50;99.90
17236;DHT22;8734;59.272;17.780;2022-10-17T02:50:45;10.50;99.90
17236;DHT22;8734;59.272;17.780;2022-10-17T02:53:20;10.40;99.90
17236;DHT22;8734;59.272;17.780;2022-10-17T02:55:56;10.40;99.90
17236;DHT22;8734;59.272;17.780;2022-10-17T02:58:30;10.40;99.90
17236;DHT22;8734;59.272;17.780;2022-10-17T03:00:59;10.40;99.90
17236;DHT22;8734;59.272;17.780;2022-10-17T03:03:30;10.30;99.90
17236;DHT22;8734;59.272;17.780;2022-10-17T03:05:58;10.30;99.90
17236;DHT22;8734;59.272;17.780;2022-10-17T03:08:27;10.30;99.90
17236;DHT22;8734;59.272;17.780;2022-10-17T03:10:55;10.30;99.90
17236;DHT22;8734;59.272;17.780;2022-10-17T03:13:24;10.30;99.90
17236;DHT22;8734;59.272;17.780;2022-10-17T03:15:52;10.30;99.90
17236;DHT22;8734;59.272;17.780;2022-10-17T03:18:21;10.30;99.90
17236;DHT22;8734;59.272;17.780;2022-10-17T03:20:50;10.20;99.90
17236;DHT22;8734;59.272;17.780;2022-10-17T03:23:19;10.30;99.90
17236;DHT22;8734;59.272;17.780;2022-10-17T03:25:47;10.30;99.90
17236;DHT22;8734;59.272;17.780;2022-10-17T03:28:15;10.30;99.90
17236;DHT22;8734;59.272;17.780;2022-10-17T03:30:44;10.20;99.90
17236;DHT22;8734;59.272;17.780;2022-10-17T03:33:12;10.20;99.90
17236;DHT22;8734;59.272;17.780;2022-10-17T03:35:40;10.10;99.90
17236;DHT22;8734;59.272;17.780;2022-10-17T03:38:10;10.10;99.90
17236;DHT22;8734;59.272;17.780;2022-10-17T03:40:38;10.10;99.90
17236;DHT22;8734;59.272;17.780;2022-10-17T03:43:06;10.10;99.90
17236;DHT22;8734;59.272;17.780;2022-10-17T03:45:37;10.10;99.90
17236;DHT22;8734;59.272;17.780;2022-10-17T03:48:05;10.00;99.90
17236;DHT22;8734;59.272;17.780;2022-10-17T03:50:33;10.00;99.90
17236;DHT22;8734;59.272;17.780;2022-10-17T03:53:02;10.00;99.90
17236;DHT22;8734;59.272;17.780;2022-10-17T03:55:32;10.10;99.90
17236;DHT22;8734;59.272;17.780;2022-10-17T03:58:00;10.00;99.90
17236;DHT22;8734;59.272;17.780;2022-10-17T04:00:29;10.10;99.90
17236;DHT22;8734;59.272;17.780;2022-10-17T04:02:57;10.00;99.90
17236;DHT22;8734;59.272;17.780;2022-10-17T04:05:26;10.00;99.90
17236;DHT22;8734;59.272;17.780;2022-10-17T04:07:54;10.00;99.90
17236;DHT22;8734;59.272;17.780;2022-10-17T04:10:27;9.90;99.90
17236;DHT22;8734;59.272;17.780;2022-10-17T04:12:56;10.00;99.90
17236;DHT22;8734;59.272;17.780;2022-10-17T04:15:25;9.90;99.90
17236;DHT22;8734;59.272;17.780;2022-10-17T04:17:53;9.90;99.90
17236;DHT22;8734;59.272;17.780;2022-10-17T04:20:22;9.90;99.90
17236;DHT22;8734;59.272;17.780;2022-10-17T04:22:50;9.90;99.90
17236;DHT22;8734;59.272;17.780;2022-10-17T04:25:18;9.90;99.90
17236;DHT22;8734;59.272;17.780;2022-10-17T04:27:47;9.80;99.90
17236;DHT22;8734;59.272;17.780;2022-10-17T04:30:17;9.80;99.90
17236;DHT22;8734;59.272;17.780;2022-10-17T04:32:45;9.80;99.90
17236;DHT22;8734;59.272;17.780;2022-10-17T04:35:14;9.80;99.90
17236;DHT22;8734;59.272;17.780;2022-10-17T04:37:42;9.80;99.90
17236;DHT22;8734;59.272;17.780;2022-10-17T04:40:10;9.70;99.90
17236;DHT22;8734;59.272;17.780;2022-10-17T04:42:39;9.70;99.90
17236;DHT22;8734;59.272;17.780;2022-10-17T04:45:08;9.70;99.90
17236;DHT22;8734;59.272;17.780;2022-10-17T04:47:37;9.70;99.90
17236;DHT22;8734;59.272;17.780;2022-10-17T04:50:06;9.70;99.90
17236;DHT22;8734;59.272;17.780;2022-10-17T04:52:34;9.70;99.90
17236;DHT22;8734;59.272;17.780;2022-10-17T04:55:04;9.80;99.90
17236;DHT22;8734;59.272;17.780;2022-10-17T04:57:33;9.80;99.90
17236;DHT22;8734;59.272;17.780;2022-10-17T05:00:03;9.80;99.90
17236;DHT22;8734;59.272;17.780;2022-10-17T05:02:31;9.80;99.90
17236;DHT22;8734;59.272;17.780;2022-10-17T05:05:01;9.90;99.90
17236;DHT22;8734;59.272;17.780;2022-10-17T05:07:29;9.80;99.90
17236;DHT22;8734;59.272;17.780;2022-10-17T05:09:57;9.70;99.90
17236;DHT22;8734;59.272;17.780;2022-10-17T05:12:26;9.70;99.90
17236;DHT22;8734;59.272;17.780;2022-10-17T05:14:55;9.70;99.90
17236;DHT22;8734;59.272;17.780;2022-10-17T05:17:23;9.60;99.90
17236;DHT22;8734;59.272;17.780;2022-10-17T05:19:51;9.70;99.90
17236;DHT22;8734;59.272;17.780;2022-10-17T05:22:21;9.70;99.90
17236;DHT22;8734;59.272;17.780;2022-10-17T05:24:49;9.60;99.90
17236;DHT22;8734;59.272;17.780;2022-10-17T05:27:17;9.60;99.90
17236;DHT22;8734;59.272;17.780;2022-10-17T05:29:46;9.60;99.90
17236;DHT22;8734;59.272;17.780;2022-10-17T05:32:14;9.60;99.90
17236;DHT22;8734;59.272;17.780;2022-10-17T05:34:42;9.60;99.90
17236;DHT22;8734;59.272;17.780;2022-10-17T05:37:11;9.60;99.90
17236;DHT22;8734;59.272;17.780;2022-10-17T05:39:40;9.50;99.90
17236;DHT22;8734;59.272;17.780;2022-10-17T05:42:13;9.50;99.90
17236;DHT22;8734;59.272;17.780;2022-10-17T05:44:42;9.40;99.90
17236;DHT22;8734;59.272;17.780;2022-10-17T05:47:10;9.50;99.90
17236;DHT22;8734;59.272;17.780;2022-10-17T05:49:38;9.40;99.90
17236;DHT22;8734;59.272;17.780;2022-10-17T05:52:15;9.40;99.90
17236;DHT22;8734;59.272;17.780;2022-10-17T05:54:45;9.40;99.90
17236;DHT22;8734;59.272;17.780;2022-10-17T05:57:13;9.40;99.90
17236;DHT22;8734;59.272;17.780;2022-10-17T05:59:42;9.50;99.90
17236;DHT22;8734;59.272;17.780;2022-10-17T06:02:11;9.50;99.90
17236;DHT22;8734;59.272;17.780;2022-10-17T06:04:40;9.50;99.90
17236;DHT22;8734;59.272;17.780;2022-10-17T06:07:11;9.50;99.90
17236;DHT22;8734;59.272;17.780;2022-10-17T06:09:40;9.50;99.90
17236;DHT22;8734;59.272;17.780;2022-10-17T06:12:10;9.50;99.90
17236;DHT22;8734;59.272;17.780;2022-10-17T06:14:38;9.40;99.90
17236;DHT22;8734;59.272;17.780;2022-10-17T06:17:06;9.40;99.90
17236;DHT22;8734;59.272;17.780;2022-10-17T06:19:41;9.50;99.90
17236;DHT22;8734;59.272;17.780;2022-10-17T06:22:11;9.50;99.90
17236;DHT22;8734;59.272;17.780;2022-10-17T06:24:39;9.50;99.90
17236;DHT22;8734;59.272;17.780;2022-10-17T06:27:09;9.50;99.90
17236;DHT22;8734;59.272;17.780;2022-10-17T06:29:38;9.50;99.90
17236;DHT22;8734;59.272;17.780;2022-10-17T06:32:06;9.50;99.90
17236;DHT22;8734;59.272;17.780;2022-10-17T06:34:40;9.50;99.90
17236;DHT22;8734;59.272;17.780;2022-10-17T06:37:08;9.50;99.90
17236;DHT22;8734;59.272;17.780;2022-10-17T06:39:36;9.60;99.90
17236;DHT22;8734;59.272;17.780;2022-10-17T06:42:05;9.60;99.90
17236;DHT22;8734;59.272;17.780;2022-10-17T06:44:34;9.60;99.90
17236;DHT22;8734;59.272;17.780;2022-10-17T06:47:03;9.70;99.90
17236;DHT22;8734;59.272;17.780;2022-10-17T06:49:31;9.70;99.90
17236;DHT22;8734;59.272;17.780;2022-10-17T06:52:00;9.80;99.90
17236;DHT22;8734;59.272;17.780;2022-10-17T06:54:28;9.80;99.90
17236;DHT22;8734;59.272;17.780;2022-10-17T06:56:57;9.80;99.90
17236;DHT22;8734;59.272;17.780;2022-10-17T06:59:25;9.80;99.90
17236;DHT22;8734;59.272;17.780;2022-10-17T07:01:54;9.90;99.90
17236;DHT22;8734;59.272;17.780;2022-10-17T07:04:23;9.90;99.90
17236;DHT22;8734;59.272;17.780;2022-10-17T07:06:51;9.90;99.90
17236;DHT22;8734;59.272;17.780;2022-10-17T07:09:19;9.90;99.90
17236;DHT22;8734;59.272;17.780;2022-10-17T07:11:48;10.00;99.90
17236;DHT22;8734;59.272;17.780;2022-10-17T07:14:17;10.00;99.90
17236;DHT22;8734;59.272;17.780;2022-10-17T07:16:45;10.00;99.90
17236;DHT22;8734;59.272;17.780;2022-10-17T07:19:15;10.00;99.90
17236;DHT22;8734;59.272;17.780;2022-10-17T07:21:43;10.00;99.90
17236;DHT22;8734;59.272;17.780;2022-10-17T07:24:11;10.00;99.90
17236;DHT22;8734;59.272;17.780;2022-10-17T07:26:40;10.00;99.90
17236;DHT22;8734;59.272;17.780;2022-10-17T07:29:08;10.00;99.90
17236;DHT22;8734;59.272;17.780;2022-10-17T07:31:36;10.00;99.90
17236;DHT22;8734;59.272;17.780;2022-10-17T07:34:05;10.00;99.90
17236;DHT22;8734;59.272;17.780;2022-10-17T07:36:35;10.00;99.90
17236;DHT22;8734;59.272;17.780;2022-10-17T07:39:03;10.00;99.90
17236;DHT22;8734;59.272;17.780;2022-10-17T07:41:31;10.10;99.90
17236;DHT22;8734;59.272;17.780;2022-10-17T07:44:00;10.10;99.90
17236;DHT22;8734;59.272;17.780;2022-10-17T07:46:28;10.10;99.90
17236;DHT22;8734;59.272;17.780;2022-10-17T07:48:56;10.10;99.90
17236;DHT22;8734;59.272;17.780;2022-10-17T07:51:26;10.10;99.90
17236;DHT22;8734;59.272;17.780;2022-10-17T07:53:55;10.20;99.90
17236;DHT22;8734;59.272;17.780;2022-10-17T07:56:23;10.20;99.90
17236;DHT22;8734;59.272;17.780;2022-10-17T07:58:52;10.20;99.90
17236;DHT22;8734;59.272;17.780;2022-10-17T08:01:20;10.30;99.90
17236;DHT22;8734;59.272;17.780;2022-10-17T08:03:48;10.30;99.90
17236;DHT22;8734;59.272;17.780;2022-10-17T08:06:17;10.40;99.90
17236;DHT22;8734;59.272;17.780;2022-10-17T08:08:45;10.40;99.90
17236;DHT22;8734;59.272;17.780;2022-10-17T08:11:14;10.40;99.90
17236;DHT22;8734;59.272;17.780;2022-10-17T08:13:43;10.50;99.90
17236;DHT22;8734;59.272;17.780;2022-10-17T08:16:12;10.50;99.90
17236;DHT22;8734;59.272;17.780;2022-10-17T08:18:41;10.60;99.90
17236;DHT22;8734;59.272;17.780;2022-10-17T08:21:11;10.60;99.90
17236;DHT22;8734;59.272;17.780;2022-10-17T08:23:40;10.70;99.90
17236;DHT22;8734;59.272;17.780;2022-10-17T08:26:09;10.70;99.90
17236;DHT22;8734;59.272;17.780;2022-10-17T08:28:41;10.80;99.90
17236;DHT22;8734;59.272;17.780;2022-10-17T08:31:12;10.90;99.90
17236;DHT22;8734;59.272;17.780;2022-10-17T08:33:40;11.00;99.90
17236;DHT22;8734;59.272;17.780;2022-10-17T08:36:09;11.10;99.90
17236;DHT22;8734;59.272;17.780;2022-10-17T08:38:39;11.40;99.90
17236;DHT22;8734;59.272;17.780;2022-10-17T08:41:18;11.90;99.90
17236;DHT22;8734;59.272;17.780;2022-10-17T08:44:02;12.90;99.90
17236;DHT22;8734;59.272;17.780;2022-10-17T08:46:36;14.00;99.90
17236;DHT22;8734;59.272;17.780;2022-10-17T08:49:11;15.00;99.90
17236;DHT22;8734;59.272;17.780;2022-10-17T08:51:46;15.80;99.90
17236;DHT22;8734;59.272;17.780;2022-10-17T08:54:21;16.20;99.90
17236;DHT22;8734;59.272;17.780;2022-10-17T08:56:53;16.60;99.90
17236;DHT22;8734;59.272;17.780;2022-10-17T08:59:26;16.90;99.90
17236;DHT22;8734;59.272;17.780;2022-10-17T09:02:00;17.70;99.90
17236;DHT22;8734;59.272;17.780;2022-10-17T09:04:49;18.50;99.90
17236;DHT22;8734;59.272;17.780;2022-10-17T09:07:28;18.40;99.90
17236;DHT22;8734;59.272;17.780;2022-10-17T09:10:03;18.30;99.90
17236;DHT22;8734;59.272;17.780;2022-10-17T09:12:40;18.30;99.90
17236;DHT22;8734;59.272;17.780;2022-10-17T09:15:27;18.40;99.90
17236;DHT22;8734;59.272;17.780;2022-10-17T09:18:00;19.30;99.90
17236;DHT22;8734;59.272;17.780;2022-10-17T09:20:32;20.10;99.90
17236;DHT22;8734;59.272;17.780;2022-10-17T09:23:07;20.70;99.90
17236;DHT22;8734;59.272;17.780;2022-10-17T09:25:41;20.90;99.90
17236;DHT22;8734;59.272;17.780;2022-10-17T09:28:15;21.60;99.90
17236;DHT22;8734;59.272;17.780;2022-10-17T09:30:50;21.50;99.90
17236;DHT22;8734;59.272;17.780;2022-10-17T09:33:25;21.50;99.90
17236;DHT22;8734;59.272;17.780;2022-10-17T09:36:10;21.50;99.90
17236;DHT22;8734;59.272;17.780;2022-10-17T09:38:42;21.60;99.90
17236;DHT22;8734;59.272;17.780;2022-10-17T09:41:16;21.30;99.90
17236;DHT22;8734;59.272;17.780;2022-10-17T09:44:13;21.00;99.90
17236;DHT22;8734;59.272;17.780;2022-10-17T09:46:50;20.30;99.90
17236;DHT22;8734;59.272;17.780;2022-10-17T09:49:27;19.50;99.90
17236;DHT22;8734;59.272;17.780;2022-10-17T09:51:59;19.00;99.90
17236;DHT22;8734;59.272;17.780;2022-10-17T09:54:35;19.20;99.90
17236;DHT22;8734;59.272;17.780;2022-10-17T09:57:08;19.50;99.90
17236;DHT22;8734;59.272;17.780;2022-10-17T09:59:39;19.00;99.90
17236;DHT22;8734;59.272;17.780;2022-10-17T10:02:16;18.30;99.90
17236;DHT22;8734;59.272;17.780;2022-10-17T10:04:56;18.20;99.90
17236;DHT22;8734;59.272;17.780;2022-10-17T10:07:35;19.20;99.90
17236;DHT22;8734;59.272;17.780;2022-10-17T10:10:07;20.70;99.90
17236;DHT22;8734;59.272;17.780;2022-10-17T10:13:02;22.10;99.90
17236;DHT22;8734;59.272;17.780;2022-10-17T10:15:34;23.50;99.90
17236;DHT22;8734;59.272;17.780;2022-10-17T10:18:27;23.80;99.90
17236;DHT22;8734;59.272;17.780;2022-10-17T10:21:09;24.10;99.90
17236;DHT22;8734;59.272;17.780;2022-10-17T10:23:39;24.60;99.90
17236;DHT22;8734;59.272;17.780;2022-10-17T10:26:21;24.80;99.90
17236;DHT22;8734;59.272;17.780;2022-10-17T10:28:52;24.40;99.90
17236;DHT22;8734;59.272;17.780;2022-10-17T10:31:33;24.30;99.90
17236;DHT22;8734;59.272;17.780;2022-10-17T10:34:17;23.90;99.90
17236;DHT22;8734;59.272;17.780;2022-10-17T10:36:51;21.50;99.90
17236;DHT22;8734;59.272;17.780;2022-10-17T10:39:42;19.20;99.90
17236;DHT22;8734;59.272;17.780;2022-10-17T10:42:21;17.30;99.90
17236;DHT22;8734;59.272;17.780;2022-10-17T10:44:52;16.10;99.90
17236;DHT22;8734;59.272;17.780;2022-10-17T10:47:23;15.20;99.90
17236;DHT22;8734;59.272;17.780;2022-10-17T10:50:14;14.90;99.90
17236;DHT22;8734;59.272;17.780;2022-10-17T10:52:46;14.70;99.90
17236;DHT22;8734;59.272;17.780;2022-10-17T10:55:23;14.60;99.90
17236;DHT22;8734;59.272;17.780;2022-10-17T10:57:56;14.70;99.90
17236;DHT22;8734;59.272;17.780;2022-10-17T11:00:27;14.80;99.90
17236;DHT22;8734;59.272;17.780;2022-10-17T11:03:03;14.70;99.90
17236;DHT22;8734;59.272;17.780;2022-10-17T11:05:43;14.70;99.90
17236;DHT22;8734;59.272;17.780;2022-10-17T11:08:19;14.70;99.90
17236;DHT22;8734;59.272;17.780;2022-10-17T11:11:05;14.70;99.90
17236;DHT22;8734;59.272;17.780;2022-10-17T11:13:39;14.60;99.90
17236;DHT22;8734;59.272;17.780;2022-10-17T11:16:21;14.60;99.90
17236;DHT22;8734;59.272;17.780;2022-10-17T11:18:54;14.60;99.90
17236;DHT22;8734;59.272;17.780;2022-10-17T11:21:35;14.50;99.90
17236;DHT22;8734;59.272;17.780;2022-10-17T11:24:11;14.50;99.90
17236;DHT22;8734;59.272;17.780;2022-10-17T11:26:45;14.50;99.90
17236;DHT22;8734;59.272;17.780;2022-10-17T11:29:15;14.50;99.90
17236;DHT22;8734;59.272;17.780;2022-10-17T11:31:51;14.40;99.90
17236;DHT22;8734;59.272;17.780;2022-10-17T11:34:24;14.60;99.90
17236;DHT22;8734;59.272;17.780;2022-10-17T11:36:58;14.60;99.90
17236;DHT22;8734;59.272;17.780;2022-10-17T11:39:30;14.60;99.90
17236;DHT22;8734;59.272;17.780;2022-10-17T11:42:03;14.60;99.90
17236;DHT22;8734;59.272;17.780;2022-10-17T11:44:36;14.50;99.90
17236;DHT22;8734;59.272;17.780;2022-10-17T11:47:11;14.40;99.90
17236;DHT22;8734;59.272;17.780;2022-10-17T11:49:45;14.30;99.90
17236;DHT22;8734;59.272;17.780;2022-10-17T11:52:27;14.20;99.90
17236;DHT22;8734;59.272;17.780;2022-10-17T11:55:20;14.20;99.90
17236;DHT22;8734;59.272;17.780;2022-10-17T11:58:00;14.10;99.90
17236;DHT22;8734;59.272;17.780;2022-10-17T12:00:42;14.00;99.90
17236;DHT22;8734;59.272;17.780;2022-10-17T12:03:25;14.00;99.90
17236;DHT22;8734;59.272;17.780;2022-10-17T12:06:01;14.00;99.90
17236;DHT22;8734;59.272;17.780;2022-10-17T12:08:38;14.00;99.90
17236;DHT22;8734;59.272;17.780;2022-10-17T12:11:18;14.00;99.90
17236;DHT22;8734;59.272;17.780;2022-10-17T12:13:53;14.00;99.90
17236;DHT22;8734;59.272;17.780;2022-10-17T12:16:49;14.00;99.90
17236;DHT22;8734;59.272;17.780;2022-10-17T12:19:28;13.90;99.90
17236;DHT22;8734;59.272;17.780;2022-10-17T12:22:05;13.90;99.90
17236;DHT22;8734;59.272;17.780;2022-10-17T12:24:43;13.80;99.90
17236;DHT22;8734;59.272;17.780;2022-10-17T12:27:31;13.80;99.90
17236;DHT22;8734;59.272;17.780;2022-10-17T12:30:05;13.80;99.90
17236;DHT22;8734;59.272;17.780;2022-10-17T12:32:34;13.80;99.90
17236;DHT22;8734;59.272;17.780;2022-10-17T12:35:24;13.70;99.90
17236;DHT22;8734;59.272;17.780;2022-10-17T12:38:20;13.60;99.90
17236;DHT22;8734;59.272;17.780;2022-10-17T12:40:58;13.50;99.90
17236;DHT22;8734;59.272;17.780;2022-10-17T12:43:43;13.40;99.90
17236;DHT22;8734;59.272;17.780;2022-10-17T12:46:11;13.30;99.90
17236;DHT22;8734;59.272;17.780;2022-10-17T12:49:03;13.20;99.90
17236;DHT22;8734;59.272;17.780;2022-10-17T12:54:38;13.10;99.90
17236;DHT22;8734;59.272;17.780;2022-10-17T12:57:32;13.00;99.90
17236;DHT22;8734;59.272;17.780;2022-10-17T13:00:13;13.00;99.90
17236;DHT22;8734;59.272;17.780;2022-10-17T13:02:43;13.00;99.90
17236;DHT22;8734;59.272;17.780;2022-10-17T13:05:15;12.90;99.90
17236;DHT22;8734;59.272;17.780;2022-10-17T13:07:46;12.90;99.90
17236;DHT22;8734;59.272;17.780;2022-10-17T13:10:19;12.90;99.90
17236;DHT22;8734;59.272;17.780;2022-10-17T13:12:50;12.90;99.90
17236;DHT22;8734;59.272;17.780;2022-10-17T13:15:21;12.90;99.90
17236;DHT22;8734;59.272;17.780;2022-10-17T13:17:56;12.90;99.90
17236;DHT22;8734;59.272;17.780;2022-10-17T13:20:27;12.80;99.90
17236;DHT22;8734;59.272;17.780;2022-10-17T13:22:57;12.80;99.90
17236;DHT22;8734;59.272;17.780;2022-10-17T13:25:26;12.70;99.90
17236;DHT22;8734;59.272;17.780;2022-10-17T13:28:11;12.60;99.90
17236;DHT22;8734;59.272;17.780;2022-10-17T13:30:45;12.60;99.90
17236;DHT22;8734;59.272;17.780;2022-10-17T13:33:26;12.50;99.90
17236;DHT22;8734;59.272;17.780;2022-10-17T13:35:56;12.50;99.90
17236;DHT22;8734;59.272;17.780;2022-10-17T13:38:29;12.50;99.90
17236;DHT22;8734;59.272;17.780;2022-10-17T13:41:10;12.40;99.90
17236;DHT22;8734;59.272;17.780;2022-10-17T13:44:02;12.40;99.90
17236;DHT22;8734;59.272;17.780;2022-10-17T13:46:32;12.30;99.90
17236;DHT22;8734;59.272;17.780;2022-10-17T13:49:16;12.30;99.90
17236;DHT22;8734;59.272;17.780;2022-10-17T13:51:52;12.30;99.90
17236;DHT22;8734;59.272;17.780;2022-10-17T13:54:36;12.30;99.90
17236;DHT22;8734;59.272;17.780;2022-10-17T13:57:17;12.30;99.90
17236;DHT22;8734;59.272;17.780;2022-10-17T13:59:49;12.30;99.90
17236;DHT22;8734;59.272;17.780;2022-10-17T14:02:21;12.30;99.90
17236;DHT22;8734;59.272;17.780;2022-10-17T14:04:59;12.30;99.90
17236;DHT22;8734;59.272;17.780;2022-10-17T14:07:45;12.20;99.90
17236;DHT22;8734;59.272;17.780;2022-10-17T14:10:38;12.20;99.90
17236;DHT22;8734;59.272;17.780;2022-10-17T14:13:18;12.10;99.90
17236;DHT22;8734;59.272;17.780;2022-10-17T14:15:49;12.10;99.90
17236;DHT22;8734;59.272;17.780;2022-10-17T14:18:20;12.00;99.90
17236;DHT22;8734;59.272;17.780;2022-10-17T14:20:51;12.10;99.90
17236;DHT22;8734;59.272;17.780;2022-10-17T14:23:41;12.10;99.90
17236;DHT22;8734;59.272;17.780;2022-10-17T14:26:12;12.00;99.90
17236;DHT22;8734;59.272;17.780;2022-10-17T14:28:44;11.90;99.90
17236;DHT22;8734;59.272;17.780;2022-10-17T14:31:24;11.90;99.90
17236;DHT22;8734;59.272;17.780;2022-10-17T14:33:54;11.90;99.90
17236;DHT22;8734;59.272;17.780;2022-10-17T14:36:37;11.90;99.90
17236;DHT22;8734;59.272;17.780;2022-10-17T14:39:18;11.90;99.90
17236;DHT22;8734;59.272;17.780;2022-10-17T14:41:47;11.90;99.90
17236;DHT22;8734;59.272;17.780;2022-10-17T14:44:21;11.80;99.90
17236;DHT22;8734;59.272;17.780;2022-10-17T14:46:58;11.80;99.90
17236;DHT22;8734;59.272;17.780;2022-10-17T14:49:36;11.70;99.90
17236;DHT22;8734;59.272;17.780;2022-10-17T14:52:25;11.70;99.90
17236;DHT22;8734;59.272;17.780;2022-10-17T14:54:55;11.60;99.90
17236;DHT22;8734;59.272;17.780;2022-10-17T14:57:27;11.60;99.90
17236;DHT22;8734;59.272;17.780;2022-10-17T14:59:56;11.60;99.90
17236;DHT22;8734;59.272;17.780;2022-10-17T15:02:28;11.60;99.90
17236;DHT22;8734;59.272;17.780;2022-10-17T15:04:57;11.60;99.90
17236;DHT22;8734;59.272;17.780;2022-10-17T15:07:25;11.60;99.90
17236;DHT22;8734;59.272;17.780;2022-10-17T15:09:53;11.50;99.90
17236;DHT22;8734;59.272;17.780;2022-10-17T15:12:23;11.50;99.90
17236;DHT22;8734;59.272;17.780;2022-10-17T15:14:52;11.40;99.90
17236;DHT22;8734;59.272;17.780;2022-10-17T15:17:23;11.40;99.90
17236;DHT22;8734;59.272;17.780;2022-10-17T15:19:54;11.40;99.90
17236;DHT22;8734;59.272;17.780;2022-10-17T15:22:22;11.30;99.90
17236;DHT22;8734;59.272;17.780;2022-10-17T15:24:51;11.30;99.90
17236;DHT22;8734;59.272;17.780;2022-10-17T15:27:21;11.20;99.90
17236;DHT22;8734;59.272;17.780;2022-10-17T15:29:50;11.20;99.90
17236;DHT22;8734;59.272;17.780;2022-10-17T15:32:18;11.20;99.90
17236;DHT22;8734;59.272;17.780;2022-10-17T15:34:47;11.10;99.90
17236;DHT22;8734;59.272;17.780;2022-10-17T15:37:20;11.10;99.90
17236;DHT22;8734;59.272;17.780;2022-10-17T15:39:50;11.10;99.90
17236;DHT22;8734;59.272;17.780;2022-10-17T15:42:21;11.10;99.90
17236;DHT22;8734;59.272;17.780;2022-10-17T15:44:50;11.10;99.90
17236;DHT22;8734;59.272;17.780;2022-10-17T15:47:27;11.00;99.90
17236;DHT22;8734;59.272;17.780;2022-10-17T15:50:00;11.00;99.90
17236;DHT22;8734;59.272;17.780;2022-10-17T15:52:30;10.90;99.90
17236;DHT22;8734;59.272;17.780;2022-10-17T15:54:59;10.90;99.90
17236;DHT22;8734;59.272;17.780;2022-10-17T15:57:34;10.90;99.90
17236;DHT22;8734;59.272;17.780;2022-10-17T16:00:05;10.90;99.90
17236;DHT22;8734;59.272;17.780;2022-10-17T16:02:41;11.00;99.90
17236;DHT22;8734;59.272;17.780;2022-10-17T16:05:13;11.00;99.90
17236;DHT22;8734;59.272;17.780;2022-10-17T16:07:44;11.00;99.90
17236;DHT22;8734;59.272;17.780;2022-10-17T16:10:13;10.90;99.90
17236;DHT22;8734;59.272;17.780;2022-10-17T16:12:42;10.90;99.90
17236;DHT22;8734;59.272;17.780;2022-10-17T16:15:13;10.80;99.90